sensor_id;sensor_type;location;lat;lon;timestamp;pressure;altitude;pressure_sealevel;temperature;humidity
39773;BME280;25451;51.960;6.250;2023-04-26T00:01:03;101749.19;;;5.91;63.97
39773;BME280;25451;51.960;6.250;2023-04-26T00:03:29;101713.50;;;5.69;63.97
39773;BME280;25451;51.960;6.250;2023-04-26T00:05:55;101748.72;;;5.87;64.44
39773;BME280;25451;51.960;6.250;2023-04-26T00:08:20;101759.69;;;5.87;64.16
39773;BME280;25451;51.960;6.250;2023-04-26T00:10:45;101758.16;;;5.84;64.63
39773;BME280;25451;51.960;6.250;2023-04-26T00:13:11;101762.13;;;5.82;64.38
39773;BME280;25451;51.960;6.250;2023-04-26T00:15:36;101758.91;;;5.78;64.35
39773;BME280;25451;51.960;6.250;2023-04-26T00:18:01;101762.91;;;5.76;64.14
39773;BME280;25451;51.960;6.250;2023-04-26T00:20:27;101756.09;;;5.72;64.38
39773;BME280;25451;51.960;6.250;2023-04-26T00:22:52;101756.47;;;5.69;64.72
39773;BME280;25451;51.960;6.250;2023-04-26T00:25:18;101749.66;;;5.65;64.55
39773;BME280;25451;51.960;6.250;2023-04-26T00:27:43;101755.81;;;5.67;64.59
39773;BME280;25451;51.960;6.250;2023-04-26T00:30:09;101751.75;;;5.63;64.63
39773;BME280;25451;51.960;6.250;2023-04-26T00:32:35;101745.81;;;5.59;65.12
39773;BME280;25451;51.960;6.250;2023-04-26T00:35:02;101742.97;;;5.53;64.89
39773;BME280;25451;51.960;6.250;2023-04-26T00:37:28;101745.31;;;5.56;64.33
39773;BME280;25451;51.960;6.250;2023-04-26T00:39:53;101748.44;;;5.53;64.75
39773;BME280;25451;51.960;6.250;2023-04-26T00:42:18;101733.81;;;5.46;64.64
39773;BME280;25451;51.960;6.250;2023-04-26T00:44:44;101748.16;;;5.48;65.18
39773;BME280;25451;51.960;6.250;2023-04-26T00:47:09;101746.47;;;5.47;64.53
39773;BME280;25451;51.960;6.250;2023-04-26T00:49:35;101744.28;;;5.42;64.86
39773;BME280;25451;51.960;6.250;2023-04-26T00:52:01;101728.81;;;5.35;64.67
39773;BME280;25451;51.960;6.250;2023-04-26T00:54:27;101743.84;;;5.39;64.71
39773;BME280;25451;51.960;6.250;2023-04-26T00:56:53;101732.41;;;5.35;64.85
39773;BME280;25451;51.960;6.250;2023-04-26T00:59:19;101739.13;;;5.33;64.85
39773;BME280;25451;51.960;6.250;2023-04-26T01:01:44;101737.78;;;5.29;65.00
39773;BME280;25451;51.960;6.250;2023-04-26T01:04:11;101735.06;;;5.29;64.94
39773;BME280;25451;51.960;6.250;2023-04-26T01:06:37;101744.28;;;5.28;64.95
39773;BME280;25451;51.960;6.250;2023-04-26T01:09:04;101739.19;;;5.25;64.90
39773;BME280;25451;51.960;6.250;2023-04-26T01:11:33;101732.41;;;5.21;65.30
39773;BME280;25451;51.960;6.250;2023-04-26T01:13:59;101744.38;;;5.20;64.82
39773;BME280;25451;51.960;6.250;2023-04-26T01:16:26;101735.91;;;5.15;65.26
39773;BME280;25451;51.960;6.250;2023-04-26T01:18:52;101743.06;;;5.16;65.29
39773;BME280;25451;51.960;6.250;2023-04-26T01:21:22;101738.31;;;5.10;65.38
39773;BME280;25451;51.960;6.250;2023-04-26T01:23:48;101738.06;;;5.04;65.12
39773;BME280;25451;51.960;6.250;2023-04-26T01:26:14;101736.53;;;5.02;65.41
39773;BME280;25451;51.960;6.250;2023-04-26T01:28:40;101743.69;;;5.03;65.29
39773;BME280;25451;51.960;6.250;2023-04-26T01:31:06;101744.94;;;5.00;65.41
39773;BME280;25451;51.960;6.250;2023-04-26T01:33:31;101732.56;;;4.90;65.10
39773;BME280;25451;51.960;6.250;2023-04-26T01:35:56;101742.56;;;4.97;65.41
39773;BME280;25451;51.960;6.250;2023-04-26T01:38:22;101741.63;;;4.90;65.53
39773;BME280;25451;51.960;6.250;2023-04-26T01:40:47;101749.63;;;4.92;65.34
39773;BME280;25451;51.960;6.250;2023-04-26T01:43:12;101746.03;;;4.91;65.33
39773;BME280;25451;51.960;6.250;2023-04-26T01:45:39;101753.56;;;4.89;65.49
39773;BME280;25451;51.960;6.250;2023-04-26T01:48:05;101750.19;;;4.87;65.78
39773;BME280;25451;51.960;6.250;2023-04-26T01:50:31;101749.50;;;4.85;65.77
39773;BME280;25451;51.960;6.250;2023-04-26T01:52:56;101745.25;;;4.83;65.19
39773;BME280;25451;51.960;6.250;2023-04-26T01:55:21;101745.44;;;4.81;65.79
39773;BME280;25451;51.960;6.250;2023-04-26T01:57:47;101740.72;;;4.75;65.42
39773;BME280;25451;51.960;6.250;2023-04-26T02:00:12;101736.97;;;4.76;65.46
39773;BME280;25451;51.960;6.250;2023-04-26T02:02:38;101732.59;;;4.67;65.73
39773;BME280;25451;51.960;6.250;2023-04-26T02:05:03;101751.00;;;4.73;65.85
39773;BME280;25451;51.960;6.250;2023-04-26T02:07:29;101735.66;;;4.64;65.51
39773;BME280;25451;51.960;6.250;2023-04-26T02:09:54;101741.44;;;4.69;65.73
39773;BME280;25451;51.960;6.250;2023-04-26T02:12:20;101734.84;;;4.64;65.58
39773;BME280;25451;51.960;6.250;2023-04-26T02:14:45;101751.06;;;4.65;66.01
39773;BME280;25451;51.960;6.250;2023-04-26T02:17:10;101740.47;;;4.62;66.18
39773;BME280;25451;51.960;6.250;2023-04-26T02:19:36;101742.06;;;4.57;65.73
39773;BME280;25451;51.960;6.250;2023-04-26T02:22:04;101740.19;;;4.57;65.82
39773;BME280;25451;51.960;6.250;2023-04-26T02:24:30;101743.94;;;4.56;65.79
39773;BME280;25451;51.960;6.250;2023-04-26T02:26:55;101743.94;;;4.56;65.88
39773;BME280;25451;51.960;6.250;2023-04-26T02:29:24;101748.75;;;4.54;66.02
39773;BME280;25451;51.960;6.250;2023-04-26T02:31:49;101750.81;;;4.52;66.08
39773;BME280;25451;51.960;6.250;2023-04-26T02:34:15;101736.19;;;4.45;66.17
39773;BME280;25451;51.960;6.250;2023-04-26T02:36:40;101731.94;;;4.43;66.00
39773;BME280;25451;51.960;6.250;2023-04-26T02:39:06;101747.78;;;4.47;66.17
39773;BME280;25451;51.960;6.250;2023-04-26T02:41:31;101745.41;;;4.44;66.03
39773;BME280;25451;51.960;6.250;2023-04-26T02:43:57;101746.47;;;4.43;66.08
39773;BME280;25451;51.960;6.250;2023-04-26T02:46:22;101739.28;;;4.42;66.30
39773;BME280;25451;51.960;6.250;2023-04-26T02:48:47;101741.34;;;4.40;66.18
39773;BME280;25451;51.960;6.250;2023-04-26T02:51:13;101742.38;;;4.39;66.38
39773;BME280;25451;51.960;6.250;2023-04-26T02:53:38;101742.72;;;4.36;66.14
39773;BME280;25451;51.960;6.250;2023-04-26T02:56:03;101747.53;;;4.34;66.39
39773;BME280;25451;51.960;6.250;2023-04-26T02:58:29;101742.06;;;4.34;66.05
39773;BME280;25451;51.960;6.250;2023-04-26T03:00:56;101743.13;;;4.33;66.34
39773;BME280;25451;51.960;6.250;2023-04-26T03:03:22;101740.56;;;4.32;66.39
39773;BME280;25451;51.960;6.250;2023-04-26T03:05:48;101738.19;;;4.29;66.14
39773;BME280;25451;51.960;6.250;2023-04-26T03:08:13;101722.38;;;4.16;66.16
39773;BME280;25451;51.960;6.250;2023-04-26T03:10:39;101741.13;;;4.27;66.38
39773;BME280;25451;51.960;6.250;2023-04-26T03:13:04;101743.19;;;4.25;66.20
39773;BME280;25451;51.960;6.250;2023-04-26T03:15:30;101738.06;;;4.22;66.45
39773;BME280;25451;51.960;6.250;2023-04-26T03:17:55;101735.88;;;4.17;66.10
39773;BME280;25451;51.960;6.250;2023-04-26T03:20:22;101745.59;;;4.20;66.20
39773;BME280;25451;51.960;6.250;2023-04-26T03:22:48;101745.78;;;4.18;66.34
39773;BME280;25451;51.960;6.250;2023-04-26T03:25:14;101747.84;;;4.16;66.30
39773;BME280;25451;51.960;6.250;2023-04-26T03:27:40;101742.72;;;4.13;66.21
39773;BME280;25451;51.960;6.250;2023-04-26T03:30:06;101736.44;;;4.13;66.69
39773;BME280;25451;51.960;6.250;2023-04-26T03:32:32;101737.63;;;4.10;66.63
39773;BME280;25451;51.960;6.250;2023-04-26T03:34:57;101714.78;;;4.03;66.41
39773;BME280;25451;51.960;6.250;2023-04-26T03:37:22;101727.25;;;4.06;66.58
39773;BME280;25451;51.960;6.250;2023-04-26T03:39:48;101726.56;;;4.04;66.56
39773;BME280;25451;51.960;6.250;2023-04-26T03:42:14;101725.56;;;4.05;66.62
39773;BME280;25451;51.960;6.250;2023-04-26T03:44:40;101719.78;;;4.00;66.67
39773;BME280;25451;51.960;6.250;2023-04-26T03:47:05;101718.09;;;3.99;66.64
39773;BME280;25451;51.960;6.250;2023-04-26T03:49:31;101725.22;;;4.00;66.76
39773;BME280;25451;51.960;6.250;2023-04-26T03:51:56;101719.09;;;3.98;66.78
39773;BME280;25451;51.960;6.250;2023-04-26T03:54:21;101715.88;;;3.94;66.80
39773;BME280;25451;51.960;6.250;2023-04-26T03:56:46;101722.03;;;3.96;66.74
39773;BME280;25451;51.960;6.250;2023-04-26T03:59:12;101715.22;;;3.92;66.66
39773;BME280;25451;51.960;6.250;2023-04-26T04:01:37;101709.28;;;3.89;66.58
39773;BME280;25451;51.960;6.250;2023-04-26T04:04:02;101703.47;;;3.84;66.82
39773;BME280;25451;51.960;6.250;2023-04-26T04:06:28;101720.19;;;3.89;66.80
39773;BME280;25451;51.960;6.250;2023-04-26T04:08:53;101707.22;;;3.83;66.67
39773;BME280;25451;51.960;6.250;2023-04-26T04:11:18;101723.09;;;3.87;66.65
39773;BME280;25451;51.960;6.250;2023-04-26T04:13:44;101711.00;;;3.82;66.56
39773;BME280;25451;51.960;6.250;2023-04-26T04:16:10;101720.53;;;3.86;67.03
39773;BME280;25451;51.960;6.250;2023-04-26T04:18:35;101723.47;;;3.84;66.67
39773;BME280;25451;51.960;6.250;2023-04-26T04:21:01;101728.06;;;3.84;66.77
39773;BME280;25451;51.960;6.250;2023-04-26T04:23:26;101728.41;;;3.81;66.83
39773;BME280;25451;51.960;6.250;2023-04-26T04:25:52;101730.31;;;3.80;66.77
39773;BME280;25451;51.960;6.250;2023-04-26T04:28:17;101731.13;;;3.81;66.93
39773;BME280;25451;51.960;6.250;2023-04-26T04:30:42;101732.50;;;3.77;66.91
39773;BME280;25451;51.960;6.250;2023-04-26T04:33:08;101723.66;;;3.75;66.78
39773;BME280;25451;51.960;6.250;2023-04-26T04:35:34;101717.91;;;3.70;66.95
39773;BME280;25451;51.960;6.250;2023-04-26T04:38:00;101733.75;;;3.74;66.97
39773;BME280;25451;51.960;6.250;2023-04-26T04:40:27;101739.03;;;3.76;67.04
39773;BME280;25451;51.960;6.250;2023-04-26T04:42:52;101739.03;;;3.76;66.92
39773;BME280;25451;51.960;6.250;2023-04-26T04:45:18;101727.06;;;3.77;67.00
39773;BME280;25451;51.960;6.250;2023-04-26T04:47:44;101722.97;;;3.73;66.86
39773;BME280;25451;51.960;6.250;2023-04-26T04:50:09;101737.16;;;3.76;66.82
39773;BME280;25451;51.960;6.250;2023-04-26T04:52:34;101737.97;;;3.77;67.03
39773;BME280;25451;51.960;6.250;2023-04-26T04:55:00;101732.88;;;3.74;67.03
39773;BME280;25451;51.960;6.250;2023-04-26T04:57:26;101735.09;;;3.78;66.97
39773;BME280;25451;51.960;6.250;2023-04-26T04:59:51;101728.78;;;3.78;67.05
39773;BME280;25451;51.960;6.250;2023-04-26T05:02:17;101735.91;;;3.79;67.06
39773;BME280;25451;51.960;6.250;2023-04-26T05:04:42;101731.50;;;3.78;67.02
39773;BME280;25451;51.960;6.250;2023-04-26T05:07:08;101740.00;;;3.83;66.80
39773;BME280;25451;51.960;6.250;2023-04-26T05:09:33;101730.13;;;3.82;66.70
39773;BME280;25451;51.960;6.250;2023-04-26T05:11:59;101741.00;;;3.90;66.67
39773;BME280;25451;51.960;6.250;2023-04-26T05:14:25;101741.66;;;3.92;66.58
39773;BME280;25451;51.960;6.250;2023-04-26T05:16:51;101745.56;;;3.97;66.61
39773;BME280;25451;51.960;6.250;2023-04-26T05:19:16;101742.09;;;4.03;66.82
39773;BME280;25451;51.960;6.250;2023-04-26T05:21:41;101746.19;;;4.07;66.69
39773;BME280;25451;51.960;6.250;2023-04-26T05:24:06;101749.03;;;4.14;66.64
39773;BME280;25451;51.960;6.250;2023-04-26T05:26:33;101752.38;;;4.24;66.31
39773;BME280;25451;51.960;6.250;2023-04-26T05:28:59;101752.72;;;4.29;66.34
39773;BME280;25451;51.960;6.250;2023-04-26T05:31:25;101753.66;;;4.36;66.18
39773;BME280;25451;51.960;6.250;2023-04-26T05:33:51;101758.91;;;4.46;65.67
39773;BME280;25451;51.960;6.250;2023-04-26T05:36:16;101755.63;;;4.50;65.89
39773;BME280;25451;51.960;6.250;2023-04-26T05:38:41;101752.16;;;4.56;66.14
39773;BME280;25451;51.960;6.250;2023-04-26T05:41:07;101767.47;;;4.65;65.91
39773;BME280;25451;51.960;6.250;2023-04-26T05:43:32;101768.44;;;4.72;66.02
39773;BME280;25451;51.960;6.250;2023-04-26T05:45:57;101765.13;;;4.77;65.51
39773;BME280;25451;51.960;6.250;2023-04-26T05:48:23;101770.72;;;4.83;65.64
39773;BME280;25451;51.960;6.250;2023-04-26T05:50:50;101774.53;;;4.97;65.92
39773;BME280;25451;51.960;6.250;2023-04-26T05:53:16;101767.47;;;5.02;65.69
39773;BME280;25451;51.960;6.250;2023-04-26T05:55:42;101769.75;;;5.14;65.69
39773;BME280;25451;51.960;6.250;2023-04-26T05:58:08;101773.25;;;5.22;65.54
39773;BME280;25451;51.960;6.250;2023-04-26T06:00:33;101773.56;;;5.27;65.70
39773;BME280;25451;51.960;6.250;2023-04-26T06:02:59;101773.94;;;5.39;65.42
39773;BME280;25451;51.960;6.250;2023-04-26T06:05:25;101782.72;;;5.49;65.58
39773;BME280;25451;51.960;6.250;2023-04-26T06:07:50;101749.66;;;5.36;65.46
39773;BME280;25451;51.960;6.250;2023-04-26T06:10:16;101788.88;;;5.65;65.30
39773;BME280;25451;51.960;6.250;2023-04-26T06:12:41;101784.97;;;5.74;65.72
39773;BME280;25451;51.960;6.250;2023-04-26T06:15:07;101788.66;;;5.81;65.92
39773;BME280;25451;51.960;6.250;2023-04-26T06:17:32;101786.72;;;5.90;65.66
39773;BME280;25451;51.960;6.250;2023-04-26T06:19:58;101790.19;;;5.99;65.38
39773;BME280;25451;51.960;6.250;2023-04-26T06:22:23;101785.84;;;6.04;65.44
39773;BME280;25451;51.960;6.250;2023-04-26T06:24:48;101794.22;;;6.17;64.93
39773;BME280;25451;51.960;6.250;2023-04-26T06:27:14;101793.06;;;6.26;65.32
39773;BME280;25451;51.960;6.250;2023-04-26T06:29:39;101793.16;;;6.33;65.01
39773;BME280;25451;51.960;6.250;2023-04-26T06:32:05;101764.78;;;6.26;65.69
39773;BME280;25451;51.960;6.250;2023-04-26T06:34:31;101797.22;;;6.58;64.91
39773;BME280;25451;51.960;6.250;2023-04-26T06:36:56;101799.66;;;6.67;65.49
39773;BME280;25451;51.960;6.250;2023-04-26T06:39:21;101787.25;;;6.72;65.15
39773;BME280;25451;51.960;6.250;2023-04-26T06:41:47;101795.38;;;6.86;64.89
39773;BME280;25451;51.960;6.250;2023-04-26T06:44:12;101793.34;;;6.95;65.21
39773;BME280;25451;51.960;6.250;2023-04-26T06:46:37;101788.19;;;7.06;65.24
39773;BME280;25451;51.960;6.250;2023-04-26T06:49:03;101793.97;;;7.18;65.47
39773;BME280;25451;51.960;6.250;2023-04-26T06:51:28;101786.25;;;7.28;65.09
39773;BME280;25451;51.960;6.250;2023-04-26T06:53:54;101789.91;;;7.35;65.16
39773;BME280;25451;51.960;6.250;2023-04-26T06:56:21;101778.13;;;7.41;65.58
39773;BME280;25451;51.960;6.250;2023-04-26T06:59:04;101791.13;;;7.60;65.66
39773;BME280;25451;51.960;6.250;2023-04-26T07:01:31;101796.69;;;7.73;65.00
39773;BME280;25451;51.960;6.250;2023-04-26T07:04:03;101798.22;;;7.82;65.31
39773;BME280;25451;51.960;6.250;2023-04-26T07:06:31;101793.00;;;7.94;65.68
39773;BME280;25451;51.960;6.250;2023-04-26T07:08:59;101789.63;;;7.98;65.54
39773;BME280;25451;51.960;6.250;2023-04-26T07:11:26;101801.56;;;8.12;65.40
39773;BME280;25451;51.960;6.250;2023-04-26T07:13:52;101803.47;;;8.18;65.49
39773;BME280;25451;51.960;6.250;2023-04-26T07:16:17;101800.38;;;8.27;65.69
39773;BME280;25451;51.960;6.250;2023-04-26T07:18:42;101793.81;;;8.28;65.65
39773;BME280;25451;51.960;6.250;2023-04-26T07:21:08;101805.72;;;8.42;65.27
39773;BME280;25451;51.960;6.250;2023-04-26T07:23:34;101803.00;;;8.49;65.60
39773;BME280;25451;51.960;6.250;2023-04-26T07:26:00;101802.81;;;8.57;65.40
39773;BME280;25451;51.960;6.250;2023-04-26T07:28:32;101804.50;;;8.64;65.64
39773;BME280;25451;51.960;6.250;2023-04-26T07:30:58;101811.72;;;8.72;65.38
39773;BME280;25451;51.960;6.250;2023-04-26T07:33:24;101807.47;;;8.76;65.50
39773;BME280;25451;51.960;6.250;2023-04-26T07:35:57;101809.00;;;8.85;65.45
39773;BME280;25451;51.960;6.250;2023-04-26T07:38:23;101810.72;;;8.99;65.52
39773;BME280;25451;51.960;6.250;2023-04-26T07:40:49;101800.75;;;9.11;65.05
39773;BME280;25451;51.960;6.250;2023-04-26T07:43:16;101801.81;;;9.23;64.85
39773;BME280;25451;51.960;6.250;2023-04-26T07:45:41;101807.53;;;9.35;65.07
39773;BME280;25451;51.960;6.250;2023-04-26T07:48:07;101798.84;;;9.44;64.73
39773;BME280;25451;51.960;6.250;2023-04-26T07:50:32;101805.41;;;9.56;64.69
39773;BME280;25451;51.960;6.250;2023-04-26T07:52:58;101799.44;;;9.66;64.77
39773;BME280;25451;51.960;6.250;2023-04-26T07:55:23;101804.94;;;9.72;64.22
39773;BME280;25451;51.960;6.250;2023-04-26T07:57:48;101801.50;;;9.83;64.34
39773;BME280;25451;51.960;6.250;2023-04-26T08:00:14;101805.09;;;9.90;64.35
39773;BME280;25451;51.960;6.250;2023-04-26T08:02:40;101808.72;;;9.97;64.19
39773;BME280;25451;51.960;6.250;2023-04-26T08:05:06;101805.31;;;9.95;64.06
39773;BME280;25451;51.960;6.250;2023-04-26T08:07:32;101810.38;;;10.12;64.09
39773;BME280;25451;51.960;6.250;2023-04-26T08:09:57;101808.63;;;10.24;63.99
39773;BME280;25451;51.960;6.250;2023-04-26T08:12:22;101773.03;;;10.16;64.05
39773;BME280;25451;51.960;6.250;2023-04-26T08:14:48;101804.31;;;10.41;63.89
39773;BME280;25451;51.960;6.250;2023-04-26T08:17:13;101810.38;;;10.56;63.78
39773;BME280;25451;51.960;6.250;2023-04-26T08:19:38;101809.66;;;10.67;63.43
39773;BME280;25451;51.960;6.250;2023-04-26T08:22:05;101814.75;;;10.76;63.52
39773;BME280;25451;51.960;6.250;2023-04-26T08:24:30;101820.22;;;10.83;63.27
39773;BME280;25451;51.960;6.250;2023-04-26T08:26:55;101817.00;;;10.86;63.21
39773;BME280;25451;51.960;6.250;2023-04-26T08:29:23;101812.91;;;10.95;63.06
39773;BME280;25451;51.960;6.250;2023-04-26T08:31:48;101814.97;;;11.00;63.21
39773;BME280;25451;51.960;6.250;2023-04-26T08:34:13;101817.72;;;11.06;63.07
39773;BME280;25451;51.960;6.250;2023-04-26T08:36:39;101814.50;;;11.09;62.96
39773;BME280;25451;51.960;6.250;2023-04-26T08:39:06;101829.72;;;11.18;62.47
39773;BME280;25451;51.960;6.250;2023-04-26T08:41:36;101823.75;;;11.21;62.36
39773;BME280;25451;51.960;6.250;2023-04-26T08:44:05;101822.00;;;11.27;62.46
39773;BME280;25451;51.960;6.250;2023-04-26T08:46:35;101829.88;;;11.30;62.10
39773;BME280;25451;51.960;6.250;2023-04-26T08:51:49;101823.25;;;11.31;62.03
39773;BME280;25451;51.960;6.250;2023-04-26T08:54:16;101819.00;;;11.28;62.16
39773;BME280;25451;51.960;6.250;2023-04-26T08:56:43;101833.88;;;11.34;62.29
39773;BME280;25451;51.960;6.250;2023-04-26T08:59:09;101824.25;;;11.36;62.29
39773;BME280;25451;51.960;6.250;2023-04-26T09:01:38;101834.03;;;11.39;62.13
39773;BME280;25451;51.960;6.250;2023-04-26T09:04:04;101823.59;;;11.41;61.88
39773;BME280;25451;51.960;6.250;2023-04-26T09:06:32;101831.22;;;11.45;61.82
39773;BME280;25451;51.960;6.250;2023-04-26T09:08:57;101829.06;;;11.47;61.72
39773;BME280;25451;51.960;6.250;2023-04-26T09:11:26;101830.31;;;11.51;61.21
39773;BME280;25451;51.960;6.250;2023-04-26T09:13:51;101831.53;;;11.55;61.43
39773;BME280;25451;51.960;6.250;2023-04-26T09:16:17;101827.25;;;11.59;61.24
39773;BME280;25451;51.960;6.250;2023-04-26T09:18:49;101824.66;;;11.64;61.07
39773;BME280;25451;51.960;6.250;2023-04-26T09:21:15;101822.09;;;11.70;60.91
39773;BME280;25451;51.960;6.250;2023-04-26T09:23:59;101820.56;;;11.74;60.71
39773;BME280;25451;51.960;6.250;2023-04-26T09:26:28;101815.63;;;11.76;60.52
39773;BME280;25451;51.960;6.250;2023-04-26T09:29:14;101815.03;;;11.74;60.35
39773;BME280;25451;51.960;6.250;2023-04-26T09:31:45;101824.56;;;11.78;60.52
39773;BME280;25451;51.960;6.250;2023-04-26T09:34:12;101823.69;;;11.77;60.33
39773;BME280;25451;51.960;6.250;2023-04-26T09:36:51;101826.25;;;11.79;60.35
39773;BME280;25451;51.960;6.250;2023-04-26T09:39:33;101817.09;;;11.78;59.89
39773;BME280;25451;51.960;6.250;2023-04-26T09:41:58;101807.34;;;11.76;60.03
39773;BME280;25451;51.960;6.250;2023-04-26T09:44:24;101805.81;;;11.80;60.09
39773;BME280;25451;51.960;6.250;2023-04-26T09:47:09;101810.28;;;11.81;59.69
39773;BME280;25451;51.960;6.250;2023-04-26T09:49:44;101815.34;;;11.84;59.67
39773;BME280;25451;51.960;6.250;2023-04-26T09:52:11;101812.13;;;11.87;59.72
39773;BME280;25451;51.960;6.250;2023-04-26T09:54:40;101815.03;;;11.92;59.57
39773;BME280;25451;51.960;6.250;2023-04-26T09:57:06;101800.59;;;11.90;59.54
39773;BME280;25451;51.960;6.250;2023-04-26T09:59:38;101810.50;;;11.97;59.17
39773;BME280;25451;51.960;6.250;2023-04-26T10:02:09;101810.28;;;11.99;59.34
39773;BME280;25451;51.960;6.250;2023-04-26T10:04:37;101809.38;;;12.05;59.10
39773;BME280;25451;51.960;6.250;2023-04-26T10:07:03;101815.53;;;12.07;58.76
39773;BME280;25451;51.960;6.250;2023-04-26T10:09:29;101811.44;;;12.09;58.74
39773;BME280;25451;51.960;6.250;2023-04-26T10:11:56;101806.13;;;12.08;58.83
39773;BME280;25451;51.960;6.250;2023-04-26T10:14:22;101808.28;;;12.06;58.87
39773;BME280;25451;51.960;6.250;2023-04-26T10:16:48;101810.13;;;12.12;58.94
39773;BME280;25451;51.960;6.250;2023-04-26T10:19:13;101812.88;;;12.12;58.74
39773;BME280;25451;51.960;6.250;2023-04-26T10:21:39;101813.97;;;12.11;58.86
39773;BME280;25451;51.960;6.250;2023-04-26T10:24:06;101802.75;;;12.06;58.58
39773;BME280;25451;51.960;6.250;2023-04-26T10:27:01;101810.44;;;12.04;58.63
39773;BME280;25451;51.960;6.250;2023-04-26T10:32:19;101803.06;;;11.98;58.85
39773;BME280;25451;51.960;6.250;2023-04-26T10:35:08;101805.56;;;11.99;58.58
39773;BME280;25451;51.960;6.250;2023-04-26T10:37:34;101806.28;;;11.95;58.59
39773;BME280;25451;51.960;6.250;2023-04-26T10:40:22;101805.19;;;11.96;58.57
39773;BME280;25451;51.960;6.250;2023-04-26T10:42:48;101802.69;;;11.94;58.59
39773;BME280;25451;51.960;6.250;2023-04-26T10:45:25;101806.28;;;11.95;58.49
39773;BME280;25451;51.960;6.250;2023-04-26T10:53:23;101795.00;;;11.96;58.53
39773;BME280;25451;51.960;6.250;2023-04-26T10:55:49;101782.00;;;11.97;58.23
39773;BME280;25451;51.960;6.250;2023-04-26T10:58:28;101785.53;;;12.04;57.91
39773;BME280;25451;51.960;6.250;2023-04-26T11:03:31;101796.44;;;12.17;57.62
39773;BME280;25451;51.960;6.250;2023-04-26T11:05:56;101785.75;;;12.20;57.86
39773;BME280;25451;51.960;6.250;2023-04-26T11:08:28;101805.06;;;12.27;57.83
39773;BME280;25451;51.960;6.250;2023-04-26T11:11:04;101799.66;;;12.32;57.64
39773;BME280;25451;51.960;6.250;2023-04-26T11:13:35;101802.56;;;12.37;57.50
39773;BME280;25451;51.960;6.250;2023-04-26T11:16:02;101802.81;;;12.35;57.39
39773;BME280;25451;51.960;6.250;2023-04-26T11:18:30;101790.19;;;12.39;57.54
39773;BME280;25451;51.960;6.250;2023-04-26T11:20:56;101805.09;;;12.38;57.59
39773;BME280;25451;51.960;6.250;2023-04-26T11:23:22;101803.19;;;12.39;57.58
39773;BME280;25451;51.960;6.250;2023-04-26T11:25:48;101805.47;;;12.42;57.32
39773;BME280;25451;51.960;6.250;2023-04-26T11:28:13;101798.72;;;12.38;57.63
39773;BME280;25451;51.960;6.250;2023-04-26T11:30:39;101804.25;;;12.38;57.77
39773;BME280;25451;51.960;6.250;2023-04-26T11:33:04;101791.75;;;12.35;57.40
39773;BME280;25451;51.960;6.250;2023-04-26T11:35:37;101797.03;;;12.37;57.66
39773;BME280;25451;51.960;6.250;2023-04-26T11:38:03;101796.19;;;12.36;57.63
39773;BME280;25451;51.960;6.250;2023-04-26T11:40:32;101789.19;;;12.34;57.43
39773;BME280;25451;51.960;6.250;2023-04-26T11:43:04;101781.97;;;12.33;57.25
39773;BME280;25451;51.960;6.250;2023-04-26T11:45:34;101786.66;;;12.32;56.97
39773;BME280;25451;51.960;6.250;2023-04-26T11:48:06;101797.50;;;12.34;57.19
39773;BME280;25451;51.960;6.250;2023-04-26T11:50:33;101784.38;;;12.29;56.85
39773;BME280;25451;51.960;6.250;2023-04-26T11:53:00;101790.53;;;12.31;56.67
39773;BME280;25451;51.960;6.250;2023-04-26T11:55:31;101784.81;;;12.26;56.39
39773;BME280;25451;51.960;6.250;2023-04-26T11:57:57;101785.81;;;12.32;56.49
39773;BME280;25451;51.960;6.250;2023-04-26T12:00:23;101795.34;;;12.36;56.44
39773;BME280;25451;51.960;6.250;2023-04-26T12:02:49;101792.72;;;12.41;56.20
39773;BME280;25451;51.960;6.250;2023-04-26T12:07:51;101786.25;;;12.47;55.88
39773;BME280;25451;51.960;6.250;2023-04-26T12:10:18;101781.94;;;12.51;55.97
39773;BME280;25451;51.960;6.250;2023-04-26T12:12:48;101782.53;;;12.53;56.11
39773;BME280;25451;51.960;6.250;2023-04-26T12:15:15;101782.91;;;12.57;55.81
39773;BME280;25451;51.960;6.250;2023-04-26T12:17:54;101783.78;;;12.57;55.81
39773;BME280;25451;51.960;6.250;2023-04-26T12:20:31;101783.53;;;12.59;55.45
39773;BME280;25451;51.960;6.250;2023-04-26T12:25:26;101788.38;;;12.63;55.36
39773;BME280;25451;51.960;6.250;2023-04-26T12:27:52;101796.22;;;12.66;55.01
39773;BME280;25451;51.960;6.250;2023-04-26T12:30:17;101792.13;;;12.69;54.95
39773;BME280;25451;51.960;6.250;2023-04-26T12:32:43;101780.22;;;12.68;55.09
39773;BME280;25451;51.960;6.250;2023-04-26T12:35:08;101783.72;;;12.75;54.53
39773;BME280;25451;51.960;6.250;2023-04-26T12:37:33;101794.34;;;12.78;54.87
39773;BME280;25451;51.960;6.250;2023-04-26T12:39:59;101788.31;;;12.81;54.63
39773;BME280;25451;51.960;6.250;2023-04-26T12:42:25;101785.91;;;12.85;54.44
39773;BME280;25451;51.960;6.250;2023-04-26T12:44:50;101784.13;;;12.90;54.21
39773;BME280;25451;51.960;6.250;2023-04-26T12:47:16;101785.00;;;12.91;54.42
39773;BME280;25451;51.960;6.250;2023-04-26T12:49:41;101784.66;;;12.99;54.37
39773;BME280;25451;51.960;6.250;2023-04-26T12:52:07;101785.00;;;13.02;53.99
39773;BME280;25451;51.960;6.250;2023-04-26T12:54:32;101781.56;;;13.07;53.98
39773;BME280;25451;51.960;6.250;2023-04-26T12:56:57;101772.50;;;13.11;54.29
39773;BME280;25451;51.960;6.250;2023-04-26T12:59:23;101785.91;;;13.14;54.32
39773;BME280;25451;51.960;6.250;2023-04-26T13:01:48;101789.03;;;13.18;54.22
39773;BME280;25451;51.960;6.250;2023-04-26T13:04:13;101790.13;;;13.17;54.11
39773;BME280;25451;51.960;6.250;2023-04-26T13:06:39;101782.28;;;13.14;54.09
39773;BME280;25451;51.960;6.250;2023-04-26T13:09:04;101791.44;;;13.14;54.27
39773;BME280;25451;51.960;6.250;2023-04-26T13:11:32;101790.25;;;13.10;53.89
39773;BME280;25451;51.960;6.250;2023-04-26T13:13:57;101793.00;;;13.10;54.34